Monday, September 25, 2017, 4:55 AM CDT
Back to Local

KOMA, Omaha Eppley Airfield

Location: Omaha, NE, United States Lat: 41.3
Local Time: 4:55 AM CDT ( 9:55 GMT) Lon: -95.9
Time Zone: US/Central Elev: 984 ft

Show me the last for .
Show Decoded

2017-09-25 04:33 METAR KOMA 250933Z 02008KT 10SM SCT005 BKN011 BKN060 17/14 A2993 RMK AO2 LTG
                 DSNT W AND NW T01670144 =
2017-09-25 04:08 METAR KOMA 250908Z 34013KT 10SM BKN005 BKN011 OVC060 17/16 A2993 RMK AO2 LTG
                 DSNT W-N T01720156 =
2017-09-25 03:59 METAR KOMA 250859Z 32011KT 10SM SCT007 BKN011 BKN060 17/16 A2993 RMK AO2 LTG
                 DSNT W-N T01720156 =
2017-09-25 03:52 METAR KOMA 250852Z 32009KT 10SM FEW007 SCT050 BKN130 OVC250 18/16 A2993 RMK AO2
                 LTG DSNT W-N RAE0758 SLP127 P0000 60022 T01780156 55006 =
2017-09-25 02:52 METAR KOMA 250752Z 01006KT 10SM -RA SCT050 SCT060 BKN110 OVC250 18/16 A2990 RMK
                 AO2 LTG DSNT W TSE12 SLP117 CB MOV NNE P0010 T01780161 =
2017-09-25 02:13 METAR KOMA 250713Z 02009KT 6SM RA BR FEW034 SCT050 OVC100 17/16 A2994 RMK AO2
                 LTG DSNT SE AND S TSE12 PRESFR OCNL LTGICCCCACG CB DSNT E-SE MOV NNE TS DSPTD
                 P0006 T01720156 =
2017-09-25 01:52 METAR KOMA 250652Z 02007KT 7SM TSRA SCT031 BKN050CB OVC090 18/16 A2997 RMK AO2
                 LTG DSNT N AND SE AND S RAB17 TSB18 SLP140 OCNL LTGICCCCACG TS ALQDS MOV N P0012
                 T01780156 =
2017-09-25 01:38 METAR KOMA 250638Z 05004KT 4SM TSRA BR SCT025 BKN050CB OVC070 18/16 A2998 RMK
                 AO2 LTG DSNT N AND S AND NW RAB17 TSB18 FRQ LTGICCCCACG TS ALQDS MOV N P0010
                 T01780156 =
2017-09-25 01:32 METAR KOMA 250632Z 00000KT 2SM +TSRA BR SCT025 BKN035CB OVC070 18/16 A2998 RMK
                 AO2 VIS 1V5 LTG DSNT N AND S RAB17 TSB18 FRQ LTGICCCCACG TS ALQDS MOV N P0008
                 T01780156 =
2017-09-25 01:18 METAR KOMA 250618Z COR 29003KT 10SM -TSRA FEW014 SCT040CB BKN130 OVC250 18/15
                 A2999 RMK AO2 LTG DSNT N AND S AND NW RAB17 TSB18 OCNL LTGICCC CB S-W-NW MOV N
                 P0000 T01780150 =
2017-09-25 00:52 METAR KOMA 250552Z 33007KT 10SM FEW014 SCT050 BKN130 OVC250 18/15 A2994 RMK AO2
                 LTG DSNT S-W SLP131 60000 T01780150 10250 20178 403170178 50005 =
2017-09-24 23:52 METAR KOMA 250452Z 29012KT 10SM SCT015 BKN060 OVC250 18/16 A2996 RMK AO2 LTG
                 DSNT W SLP137 OCNL LTGIC W T01830156 =
2017-09-24 22:52 METAR KOMA 250352Z 34010KT 10SM SCT065 BKN075 OVC250 19/16 A2994 RMK AO2 LTG
                 DSNT SW-NW RAB01E10 SLP130 P0000 T01890156 =
2017-09-24 21:52 METAR KOMA 250252Z 34012KT 10SM BKN060 BKN075 OVC250 20/17 A2993 RMK AO2 SLP127
                 T02000172 53019 =
2017-09-24 20:52 METAR KOMA 250152Z 36010KT 10SM SCT085 BKN110 OVC250 21/18 A2991 RMK AO2 SLP119
                 T02110178 =
2017-09-24 19:52 METAR KOMA 250052Z 01009KT 10SM FEW020 BKN075 BKN250 23/20 A2988 RMK AO2 SLP111
                 T02280200 =
2017-09-24 18:52 METAR KOMA 242352Z 00000KT 10SM FEW025 SCT060 BKN090 BKN250 24/21 A2987 RMK AO2
                 SLP108 60020 T02440206 10317 20228 51005 =
2017-09-24 17:52 METAR KOMA 242252Z 00000KT 10SM SCT060 BKN090 BKN250 26/19 A2987 RMK AO2 SLP106
                 CB MOV NE T02560194 =
2017-09-24 16:52 METAR KOMA 242152Z 04005KT 10SM BKN060CB BKN090 BKN250 23/20 A2987 RMK AO2 PK
                 WND 28029/2112 LTG DSNT N RAB18E38 SLP109 CB NE-SE MOV NE P0008 T02330200 =
2017-09-24 15:52 METAR KOMA 242052Z 35008KT 10SM BKN060CB BKN090 BKN250 26/21 A2986 RMK AO2 LTG
                 DSNT W RAE01 SLP102 CB W MOV NE P0003 60012 T02560211 57015 =
2017-09-24 15:28 METAR KOMA 242028Z 02007KT 10SM FEW050CB SCT065 BKN120 BKN250 27/22 A2987 RMK
                 AO2 LTG DSNT SW-N RAE01 CB DSNT NE MOV NE P0003 T02720217 =
2017-09-24 14:52 METAR KOMA 241952Z 26008G30KT 3SM VCTS +RA SCT047CB BKN060 BKN075 BKN150 BKN250
                 24/19 A2987 RMK AO2 PK WND 26030/1946 LTG DSNT N AND W RAB1854 SLP107 CB OHD MOV
                 NE P0009 T02390194 =
2017-09-24 13:52 METAR KOMA 241852Z 16020G26KT 10SM BKN060 BKN075 BKN110 BKN250 30/18 A2989 RMK
                 AO2 PK WND 16026/1852 SLP113 T03000183 =
2017-09-24 12:52 METAR KOMA 241752Z 18012KT 10SM SCT050 SCT120 BKN250 31/19 A2990 RMK AO2 SLP115
                 T03060189 10306 20217 58005 =
2017-09-24 11:52 METAR KOMA 241652Z 19009KT 10SM SCT110 BKN250 28/19 A2992 RMK AO2 SLP123
                 T02830189 =
2017-09-24 10:52 METAR KOMA 241552Z 17012KT 10SM SCT110 BKN250 27/19 A2992 RMK AO2 SLP122
                 T02720189 =
2017-09-24 09:52 METAR KOMA 241452Z 15013KT 10SM FEW110 BKN250 26/18 A2992 RMK AO2 SLP122
                 T02610183 58000 =
2017-09-24 08:52 METAR KOMA 241352Z 15010KT 10SM BKN250 24/18 A2992 RMK AO2 SLP123 T02390183 =
2017-09-24 07:52 METAR KOMA 241252Z 15008KT 10SM BKN200 22/18 A2992 RMK AO2 SLP124 T02170183 =
2017-09-24 06:52 METAR KOMA 241152Z 16008KT 10SM SCT200 22/18 A2992 RMK AO2 SLP122 T02170178
                 10244 20206 53003 =
2017-09-24 05:52 METAR KOMA 241052Z 15007KT 10SM SCT200 21/18 A2992 RMK AO2 SLP121 T02110178 =

Support USWX by starting your Amazon purchase here.